This is the latest recevied weather packets stored in our database for station/object KD0SBN. If no packets are shown the sender has not sent any weather packets the latest 10 day(s).
| Time | Temp. | Humidity | Pressure | Rain* | Wind** | Luminosity | Snow |
|---|---|---|---|---|---|---|---|
| 1778246982 | 14.44° C | 54% | 1015.6 hPa | 0 mm | - | - | - |
| 1778246680 | 14.44° C | 54% | 1015.6 hPa | 0 mm | - | - | - |
| 1778246377 | 13.89° C | 56% | 1015.5 hPa | 0 mm | - | - | - |
| 1778246072 | 13.89° C | 56% | 1015.4 hPa | 0 mm | - | - | - |
| 1778245769 | 13.33° C | 56% | 1015.6 hPa | 0 mm | - | - | - |
| 1778245466 | 13.33° C | 56% | 1015.5 hPa | 0 mm | - | - | - |
| 1778245161 | 13.33° C | 57% | 1015.2 hPa | 0 mm | - | - | - |
| 1778244858 | 12.78° C | 59% | 1015.4 hPa | 0 mm | - | - | - |
| 1778244556 | 12.22° C | 59% | 1015.5 hPa | 0 mm | - | - | - |
| 1778244253 | 12.22° C | 62% | 1015 hPa | 0 mm | - | - | - |
| 1778243951 | 11.67° C | 61% | 1015.1 hPa | 0 mm | - | - | - |
| 1778243649 | 11.67° C | 62% | 1015.1 hPa | 0 mm | - | - | - |
| 1778243345 | 11.67° C | 62% | 1015 hPa | 0 mm | - | - | - |
| 1778243042 | 11.11° C | 64% | 1015.1 hPa | 0 mm | - | - | - |
| 1778242739 | 11.11° C | 63% | 1015.1 hPa | 0 mm | - | - | - |
| 1778242438 | 10.56° C | 64% | 1014.8 hPa | 0 mm | - | - | - |
| 1778242135 | 10.56° C | 65% | 1014.7 hPa | 0 mm | - | - | - |
| 1778241833 | 9.44° C | 67% | 1014.8 hPa | 0 mm | - | - | - |
| 1778241530 | 10° C | 67% | 1014.8 hPa | 0 mm | - | - | - |
| 1778241227 | 10.56° C | 65% | 1014.5 hPa | 0 mm | - | - | - |
| 1778240924 | 10.56° C | 66% | 1014.5 hPa | 0 mm | - | - | - |
| 1778240621 | 10° C | 67% | 1014.7 hPa | 0 mm | - | - | - |
| 1778240317 | 10.56° C | 63% | 1014.5 hPa | 0 mm | - | - | - |
| 1778240016 | 11.11° C | 63% | 1014.4 hPa | 0 mm | - | - | - |
| 1778239712 | 10° C | 65% | 1014.5 hPa | 0 mm | - | - | - |
* Rain latest hour (hover to see other rain measurements)
** Current wind speed in m/s (hover to see current wind gust speed)